sensor_id;sensor_type;location;lat;lon;timestamp;temperature;humidity
45323;DHT22;31382;50.200;8.674;2022-08-23T00:02:34;21.10;84.10
45323;DHT22;31382;50.200;8.674;2022-08-23T00:07:38;21.00;84.80
45323;DHT22;31382;50.200;8.674;2022-08-23T00:12:41;20.90;86.10
45323;DHT22;31382;50.200;8.674;2022-08-23T00:17:43;20.80;87.00
45323;DHT22;31382;50.200;8.674;2022-08-23T00:22:45;20.60;87.20
45323;DHT22;31382;50.200;8.674;2022-08-23T00:27:48;20.50;87.70
45323;DHT22;31382;50.200;8.674;2022-08-23T00:32:50;20.40;88.40
45323;DHT22;31382;50.200;8.674;2022-08-23T00:37:57;20.30;88.40
45323;DHT22;31382;50.200;8.674;2022-08-23T00:43:26;20.20;88.90
45323;DHT22;31382;50.200;8.674;2022-08-23T00:48:48;20.00;89.40
45323;DHT22;31382;50.200;8.674;2022-08-23T00:53:53;19.90;90.10
45323;DHT22;31382;50.200;8.674;2022-08-23T00:58:56;19.80;90.30
45323;DHT22;31382;50.200;8.674;2022-08-23T01:03:58;19.60;90.60
45323;DHT22;31382;50.200;8.674;2022-08-23T01:09:10;19.60;90.90
45323;DHT22;31382;50.200;8.674;2022-08-23T01:14:56;19.60;91.30
45323;DHT22;31382;50.200;8.674;2022-08-23T01:20:04;19.40;91.50
45323;DHT22;31382;50.200;8.674;2022-08-23T01:25:11;19.30;91.90
45323;DHT22;31382;50.200;8.674;2022-08-23T01:30:19;19.20;92.00
45323;DHT22;31382;50.200;8.674;2022-08-23T01:35:28;19.10;92.50
45323;DHT22;31382;50.200;8.674;2022-08-23T01:40:32;19.10;92.90
45323;DHT22;31382;50.200;8.674;2022-08-23T01:45:34;19.00;93.00
45323;DHT22;31382;50.200;8.674;2022-08-23T01:50:36;18.80;93.60
45323;DHT22;31382;50.200;8.674;2022-08-23T01:55:43;18.70;93.90
45323;DHT22;31382;50.200;8.674;2022-08-23T02:00:45;18.60;94.30
45323;DHT22;31382;50.200;8.674;2022-08-23T02:05:47;18.50;94.70
45323;DHT22;31382;50.200;8.674;2022-08-23T02:10:49;18.40;95.10
45323;DHT22;31382;50.200;8.674;2022-08-23T02:15:51;18.30;95.30
45323;DHT22;31382;50.200;8.674;2022-08-23T02:20:53;18.30;95.70
45323;DHT22;31382;50.200;8.674;2022-08-23T02:25:55;18.20;96.30
45323;DHT22;31382;50.200;8.674;2022-08-23T02:30:57;18.10;96.50
45323;DHT22;31382;50.200;8.674;2022-08-23T02:35:58;18.00;96.90
45323;DHT22;31382;50.200;8.674;2022-08-23T02:41:00;17.90;97.50
45323;DHT22;31382;50.200;8.674;2022-08-23T02:46:03;17.80;98.00
45323;DHT22;31382;50.200;8.674;2022-08-23T02:51:07;17.80;98.60
45323;DHT22;31382;50.200;8.674;2022-08-23T02:56:11;17.60;99.20
45323;DHT22;31382;50.200;8.674;2022-08-23T03:01:26;17.50;99.70
45323;DHT22;31382;50.200;8.674;2022-08-23T03:06:29;17.50;99.90
45323;DHT22;31382;50.200;8.674;2022-08-23T03:11:31;17.40;99.90
45323;DHT22;31382;50.200;8.674;2022-08-23T03:16:32;17.50;99.90
45323;DHT22;31382;50.200;8.674;2022-08-23T03:21:35;17.30;99.90
45323;DHT22;31382;50.200;8.674;2022-08-23T03:26:36;17.30;99.90
45323;DHT22;31382;50.200;8.674;2022-08-23T03:31:38;17.30;99.90
45323;DHT22;31382;50.200;8.674;2022-08-23T03:36:40;17.30;99.90
45323;DHT22;31382;50.200;8.674;2022-08-23T03:41:41;17.20;99.90
45323;DHT22;31382;50.200;8.674;2022-08-23T03:46:43;17.10;99.90
45323;DHT22;31382;50.200;8.674;2022-08-23T03:51:45;17.10;99.90
45323;DHT22;31382;50.200;8.674;2022-08-23T03:56:59;17.00;99.90
45323;DHT22;31382;50.200;8.674;2022-08-23T04:02:01;17.00;99.90
45323;DHT22;31382;50.200;8.674;2022-08-23T04:07:03;17.00;99.90
45323;DHT22;31382;50.200;8.674;2022-08-23T04:12:05;16.90;99.90
45323;DHT22;31382;50.200;8.674;2022-08-23T04:17:18;16.90;99.90
45323;DHT22;31382;50.200;8.674;2022-08-23T04:22:21;16.80;99.90
45323;DHT22;31382;50.200;8.674;2022-08-23T04:27:23;16.80;99.90
45323;DHT22;31382;50.200;8.674;2022-08-23T04:32:24;16.80;99.90
45323;DHT22;31382;50.200;8.674;2022-08-23T04:37:29;16.80;99.90
45323;DHT22;31382;50.200;8.674;2022-08-23T04:42:30;16.80;99.90
45323;DHT22;31382;50.200;8.674;2022-08-23T04:47:32;16.80;99.90
45323;DHT22;31382;50.200;8.674;2022-08-23T04:52:35;16.80;99.90
45323;DHT22;31382;50.200;8.674;2022-08-23T04:57:37;16.80;99.90
45323;DHT22;31382;50.200;8.674;2022-08-23T05:02:39;16.80;99.90
45323;DHT22;31382;50.200;8.674;2022-08-23T05:07:40;16.80;99.90
45323;DHT22;31382;50.200;8.674;2022-08-23T05:12:44;16.90;99.90
45323;DHT22;31382;50.200;8.674;2022-08-23T05:17:46;16.90;99.90
45323;DHT22;31382;50.200;8.674;2022-08-23T05:22:47;16.90;99.90
45323;DHT22;31382;50.200;8.674;2022-08-23T05:27:50;16.90;99.90
45323;DHT22;31382;50.200;8.674;2022-08-23T05:32:51;17.00;99.90
45323;DHT22;31382;50.200;8.674;2022-08-23T05:37:53;17.10;99.90
45323;DHT22;31382;50.200;8.674;2022-08-23T05:42:55;17.10;99.90
45323;DHT22;31382;50.200;8.674;2022-08-23T05:47:57;17.10;99.90
45323;DHT22;31382;50.200;8.674;2022-08-23T05:52:59;17.30;99.90
45323;DHT22;31382;50.200;8.674;2022-08-23T05:58:01;17.40;99.90
45323;DHT22;31382;50.200;8.674;2022-08-23T06:03:03;17.60;99.90
45323;DHT22;31382;50.200;8.674;2022-08-23T06:08:04;17.70;99.90
45323;DHT22;31382;50.200;8.674;2022-08-23T06:13:06;17.90;99.90
45323;DHT22;31382;50.200;8.674;2022-08-23T06:18:08;18.00;99.90
45323;DHT22;31382;50.200;8.674;2022-08-23T06:23:10;18.20;99.90
45323;DHT22;31382;50.200;8.674;2022-08-23T06:28:12;18.50;99.90
45323;DHT22;31382;50.200;8.674;2022-08-23T06:33:15;18.60;99.90
45323;DHT22;31382;50.200;8.674;2022-08-23T06:38:18;18.90;99.90
45323;DHT22;31382;50.200;8.674;2022-08-23T06:43:19;19.10;99.90
45323;DHT22;31382;50.200;8.674;2022-08-23T06:48:21;19.20;99.90
45323;DHT22;31382;50.200;8.674;2022-08-23T06:53:22;19.30;99.90
45323;DHT22;31382;50.200;8.674;2022-08-23T06:58:24;19.40;99.90
45323;DHT22;31382;50.200;8.674;2022-08-23T07:03:26;19.60;99.90
45323;DHT22;31382;50.200;8.674;2022-08-23T07:08:28;19.80;99.90
45323;DHT22;31382;50.200;8.674;2022-08-23T07:13:30;20.00;99.90
45323;DHT22;31382;50.200;8.674;2022-08-23T07:18:31;20.20;99.90
45323;DHT22;31382;50.200;8.674;2022-08-23T07:23:34;20.30;99.90
45323;DHT22;31382;50.200;8.674;2022-08-23T07:28:36;20.50;99.90
45323;DHT22;31382;50.200;8.674;2022-08-23T07:33:39;20.70;99.90
45323;DHT22;31382;50.200;8.674;2022-08-23T07:38:43;21.00;99.90
45323;DHT22;31382;50.200;8.674;2022-08-23T07:43:46;21.20;99.90
45323;DHT22;31382;50.200;8.674;2022-08-23T07:48:48;21.40;99.90
45323;DHT22;31382;50.200;8.674;2022-08-23T07:53:57;21.60;99.90
45323;DHT22;31382;50.200;8.674;2022-08-23T07:59:01;21.70;99.90
45323;DHT22;31382;50.200;8.674;2022-08-23T08:04:05;21.90;99.90
45323;DHT22;31382;50.200;8.674;2022-08-23T08:09:08;22.00;99.30
45323;DHT22;31382;50.200;8.674;2022-08-23T08:14:10;22.10;99.60
45323;DHT22;31382;50.200;8.674;2022-08-23T08:19:14;22.20;99.40
45323;DHT22;31382;50.200;8.674;2022-08-23T08:24:19;22.20;99.60
45323;DHT22;31382;50.200;8.674;2022-08-23T08:29:21;22.30;99.40
45323;DHT22;31382;50.200;8.674;2022-08-23T08:34:23;22.40;98.80
45323;DHT22;31382;50.200;8.674;2022-08-23T08:39:28;22.50;98.10
45323;DHT22;31382;50.200;8.674;2022-08-23T08:44:53;22.70;98.30
45323;DHT22;31382;50.200;8.674;2022-08-23T08:49:57;22.90;97.10
45323;DHT22;31382;50.200;8.674;2022-08-23T08:55:05;23.10;97.30
45323;DHT22;31382;50.200;8.674;2022-08-23T09:00:16;23.30;96.80
45323;DHT22;31382;50.200;8.674;2022-08-23T09:05:23;23.50;96.10
45323;DHT22;31382;50.200;8.674;2022-08-23T09:22:08;24.10;94.20
45323;DHT22;31382;50.200;8.674;2022-08-23T09:27:10;24.30;95.30
45323;DHT22;31382;50.200;8.674;2022-08-23T09:32:27;24.60;94.30
45323;DHT22;31382;50.200;8.674;2022-08-23T09:37:30;24.80;93.10
45323;DHT22;31382;50.200;8.674;2022-08-23T09:42:45;25.00;91.80
45323;DHT22;31382;50.200;8.674;2022-08-23T09:47:47;25.20;91.30
45323;DHT22;31382;50.200;8.674;2022-08-23T09:53:03;25.30;91.00
45323;DHT22;31382;50.200;8.674;2022-08-23T10:03:27;25.70;90.30
45323;DHT22;31382;50.200;8.674;2022-08-23T10:08:32;26.10;90.90
45323;DHT22;31382;50.200;8.674;2022-08-23T10:13:35;26.40;90.70
45323;DHT22;31382;50.200;8.674;2022-08-23T10:19:01;26.70;89.00
45323;DHT22;31382;50.200;8.674;2022-08-23T10:29:36;27.50;86.00
45323;DHT22;31382;50.200;8.674;2022-08-23T10:34:46;28.30;83.70
45323;DHT22;31382;50.200;8.674;2022-08-23T10:50:07;29.60;81.20
45323;DHT22;31382;50.200;8.674;2022-08-23T10:55:17;29.60;77.90
45323;DHT22;31382;50.200;8.674;2022-08-23T11:00:35;29.10;77.20
45323;DHT22;31382;50.200;8.674;2022-08-23T11:05:38;29.20;78.30
45323;DHT22;31382;50.200;8.674;2022-08-23T11:10:45;29.20;77.30
45323;DHT22;31382;50.200;8.674;2022-08-23T11:21:04;29.50;77.00
45323;DHT22;31382;50.200;8.674;2022-08-23T11:26:10;29.70;74.80
45323;DHT22;31382;50.200;8.674;2022-08-23T11:31:41;29.90;74.90
45323;DHT22;31382;50.200;8.674;2022-08-23T11:42:20;30.30;74.00
45323;DHT22;31382;50.200;8.674;2022-08-23T11:47:28;30.70;74.50
45323;DHT22;31382;50.200;8.674;2022-08-23T11:53:05;30.90;71.00
45323;DHT22;31382;50.200;8.674;2022-08-23T11:58:32;30.70;69.90
45323;DHT22;31382;50.200;8.674;2022-08-23T12:03:57;30.50;69.40
45323;DHT22;31382;50.200;8.674;2022-08-23T12:09:05;31.30;68.50
45323;DHT22;31382;50.200;8.674;2022-08-23T12:19:38;31.50;66.90
45323;DHT22;31382;50.200;8.674;2022-08-23T12:24:45;31.70;69.30
45323;DHT22;31382;50.200;8.674;2022-08-23T12:35:42;31.70;64.70
45323;DHT22;31382;50.200;8.674;2022-08-23T12:40:50;32.00;65.40
45323;DHT22;31382;50.200;8.674;2022-08-23T12:46:00;32.20;64.70
45323;DHT22;31382;50.200;8.674;2022-08-23T12:51:07;32.00;61.50
45323;DHT22;31382;50.200;8.674;2022-08-23T12:56:26;32.40;61.60
45323;DHT22;31382;50.200;8.674;2022-08-23T13:01:34;32.20;61.80
45323;DHT22;31382;50.200;8.674;2022-08-23T13:11:46;33.20;60.20
45323;DHT22;31382;50.200;8.674;2022-08-23T13:16:49;33.80;58.60
45323;DHT22;31382;50.200;8.674;2022-08-23T13:27:26;34.20;57.70
45323;DHT22;31382;50.200;8.674;2022-08-23T13:32:43;33.90;56.70
45323;DHT22;31382;50.200;8.674;2022-08-23T13:37:49;34.60;55.50
45323;DHT22;31382;50.200;8.674;2022-08-23T13:43:05;34.90;54.60
45323;DHT22;31382;50.200;8.674;2022-08-23T13:48:14;34.40;53.80
45323;DHT22;31382;50.200;8.674;2022-08-23T13:53:17;34.50;54.90
45323;DHT22;31382;50.200;8.674;2022-08-23T13:58:28;34.40;53.40
45323;DHT22;31382;50.200;8.674;2022-08-23T14:03:30;34.50;55.10
45323;DHT22;31382;50.200;8.674;2022-08-23T14:08:32;34.90;53.90
45323;DHT22;31382;50.200;8.674;2022-08-23T14:13:34;35.50;50.90
45323;DHT22;31382;50.200;8.674;2022-08-23T14:18:37;35.60;52.10
45323;DHT22;31382;50.200;8.674;2022-08-23T14:23:58;35.30;52.70
45323;DHT22;31382;50.200;8.674;2022-08-23T14:29:00;35.10;52.80
45323;DHT22;31382;50.200;8.674;2022-08-23T14:34:02;35.30;52.60
45323;DHT22;31382;50.200;8.674;2022-08-23T14:39:04;35.40;52.30
45323;DHT22;31382;50.200;8.674;2022-08-23T14:44:06;34.60;52.30
45323;DHT22;31382;50.200;8.674;2022-08-23T14:49:09;34.30;52.90
45323;DHT22;31382;50.200;8.674;2022-08-23T14:54:17;34.80;54.00
45323;DHT22;31382;50.200;8.674;2022-08-23T14:59:19;34.40;52.80
45323;DHT22;31382;50.200;8.674;2022-08-23T15:04:23;34.40;52.50
45323;DHT22;31382;50.200;8.674;2022-08-23T15:09:27;33.60;53.70
45323;DHT22;31382;50.200;8.674;2022-08-23T15:14:29;33.50;53.60
45323;DHT22;31382;50.200;8.674;2022-08-23T15:19:31;33.10;53.70
45323;DHT22;31382;50.200;8.674;2022-08-23T15:24:33;33.30;54.60
45323;DHT22;31382;50.200;8.674;2022-08-23T15:29:34;33.30;53.40
45323;DHT22;31382;50.200;8.674;2022-08-23T15:34:36;33.50;53.50
45323;DHT22;31382;50.200;8.674;2022-08-23T15:39:41;33.40;54.00
45323;DHT22;31382;50.200;8.674;2022-08-23T15:44:43;33.40;55.10
45323;DHT22;31382;50.200;8.674;2022-08-23T15:49:44;33.40;53.40
45323;DHT22;31382;50.200;8.674;2022-08-23T15:54:46;33.30;53.70
45323;DHT22;31382;50.200;8.674;2022-08-23T15:59:48;33.10;53.20
45323;DHT22;31382;50.200;8.674;2022-08-23T16:04:50;33.30;53.80
45323;DHT22;31382;50.200;8.674;2022-08-23T16:09:51;33.20;52.60
45323;DHT22;31382;50.200;8.674;2022-08-23T16:14:53;33.10;53.30
45323;DHT22;31382;50.200;8.674;2022-08-23T16:19:55;33.00;53.00
45323;DHT22;31382;50.200;8.674;2022-08-23T16:24:58;32.90;52.80
45323;DHT22;31382;50.200;8.674;2022-08-23T16:30:01;32.50;54.60
45323;DHT22;31382;50.200;8.674;2022-08-23T16:35:04;32.20;57.50
45323;DHT22;31382;50.200;8.674;2022-08-23T16:40:07;31.90;55.90
45323;DHT22;31382;50.200;8.674;2022-08-23T16:45:10;31.70;54.90
45323;DHT22;31382;50.200;8.674;2022-08-23T16:50:13;31.50;56.10
45323;DHT22;31382;50.200;8.674;2022-08-23T16:55:15;31.20;54.70
45323;DHT22;31382;50.200;8.674;2022-08-23T17:00:17;31.20;54.20
45323;DHT22;31382;50.200;8.674;2022-08-23T17:05:19;31.10;53.70
45323;DHT22;31382;50.200;8.674;2022-08-23T17:10:21;31.20;53.90
45323;DHT22;31382;50.200;8.674;2022-08-23T17:15:29;31.20;53.30
45323;DHT22;31382;50.200;8.674;2022-08-23T17:20:33;31.10;53.90
45323;DHT22;31382;50.200;8.674;2022-08-23T17:25:37;31.20;53.40
45323;DHT22;31382;50.200;8.674;2022-08-23T17:30:38;31.10;53.90
45323;DHT22;31382;50.200;8.674;2022-08-23T17:35:40;30.80;53.80
45323;DHT22;31382;50.200;8.674;2022-08-23T17:40:44;30.60;54.20
45323;DHT22;31382;50.200;8.674;2022-08-23T17:45:48;30.40;54.90
45323;DHT22;31382;50.200;8.674;2022-08-23T17:50:50;30.20;55.30
45323;DHT22;31382;50.200;8.674;2022-08-23T17:55:52;30.10;55.00
45323;DHT22;31382;50.200;8.674;2022-08-23T18:00:54;29.90;55.60
45323;DHT22;31382;50.200;8.674;2022-08-23T18:05:56;29.70;56.60
45323;DHT22;31382;50.200;8.674;2022-08-23T18:10:58;29.50;58.60
45323;DHT22;31382;50.200;8.674;2022-08-23T18:16:00;29.20;58.30
45323;DHT22;31382;50.200;8.674;2022-08-23T18:21:05;28.90;59.70
45323;DHT22;31382;50.200;8.674;2022-08-23T18:26:12;28.70;61.40
45323;DHT22;31382;50.200;8.674;2022-08-23T18:31:34;28.50;63.00
45323;DHT22;31382;50.200;8.674;2022-08-23T18:36:36;28.20;64.40
45323;DHT22;31382;50.200;8.674;2022-08-23T18:41:39;27.90;65.40
45323;DHT22;31382;50.200;8.674;2022-08-23T18:46:42;27.50;65.40
45323;DHT22;31382;50.200;8.674;2022-08-23T18:51:44;27.30;66.10
45323;DHT22;31382;50.200;8.674;2022-08-23T18:56:45;27.00;68.30
45323;DHT22;31382;50.200;8.674;2022-08-23T19:01:47;26.80;67.90
45323;DHT22;31382;50.200;8.674;2022-08-23T19:06:49;26.50;68.80
45323;DHT22;31382;50.200;8.674;2022-08-23T19:11:55;26.30;68.80
45323;DHT22;31382;50.200;8.674;2022-08-23T19:16:57;26.00;68.70
45323;DHT22;31382;50.200;8.674;2022-08-23T19:22:02;25.80;70.70
45323;DHT22;31382;50.200;8.674;2022-08-23T19:27:05;25.60;70.40
45323;DHT22;31382;50.200;8.674;2022-08-23T19:32:07;25.40;71.80
45323;DHT22;31382;50.200;8.674;2022-08-23T19:37:10;25.30;72.70
45323;DHT22;31382;50.200;8.674;2022-08-23T19:42:23;25.00;72.60
45323;DHT22;31382;50.200;8.674;2022-08-23T19:47:27;24.90;74.00
45323;DHT22;31382;50.200;8.674;2022-08-23T19:52:29;24.80;74.90
45323;DHT22;31382;50.200;8.674;2022-08-23T19:57:31;24.60;76.50
45323;DHT22;31382;50.200;8.674;2022-08-23T20:02:33;24.50;75.60
45323;DHT22;31382;50.200;8.674;2022-08-23T20:07:36;24.30;75.90
45323;DHT22;31382;50.200;8.674;2022-08-23T20:12:39;24.10;75.90
45323;DHT22;31382;50.200;8.674;2022-08-23T20:17:42;23.90;76.00
45323;DHT22;31382;50.200;8.674;2022-08-23T20:22:44;23.80;75.80
45323;DHT22;31382;50.200;8.674;2022-08-23T20:28:05;23.60;76.30
45323;DHT22;31382;50.200;8.674;2022-08-23T20:33:08;23.50;77.20
45323;DHT22;31382;50.200;8.674;2022-08-23T20:38:11;23.40;77.50
45323;DHT22;31382;50.200;8.674;2022-08-23T20:43:34;23.30;78.00
45323;DHT22;31382;50.200;8.674;2022-08-23T20:48:37;23.20;78.90
45323;DHT22;31382;50.200;8.674;2022-08-23T20:53:38;23.10;79.10
45323;DHT22;31382;50.200;8.674;2022-08-23T20:58:41;23.00;78.90
45323;DHT22;31382;50.200;8.674;2022-08-23T21:03:44;22.80;80.10
45323;DHT22;31382;50.200;8.674;2022-08-23T21:08:48;22.70;80.80
45323;DHT22;31382;50.200;8.674;2022-08-23T21:13:55;22.60;81.00
45323;DHT22;31382;50.200;8.674;2022-08-23T21:18:57;22.40;81.00
45323;DHT22;31382;50.200;8.674;2022-08-23T21:23:59;22.30;81.70
45323;DHT22;31382;50.200;8.674;2022-08-23T21:29:02;22.20;81.70
45323;DHT22;31382;50.200;8.674;2022-08-23T21:34:04;22.00;82.40
45323;DHT22;31382;50.200;8.674;2022-08-23T21:39:07;21.90;83.30
45323;DHT22;31382;50.200;8.674;2022-08-23T21:44:12;21.80;83.60
45323;DHT22;31382;50.200;8.674;2022-08-23T21:49:14;21.70;84.10
45323;DHT22;31382;50.200;8.674;2022-08-23T21:54:17;21.50;84.30
45323;DHT22;31382;50.200;8.674;2022-08-23T21:59:18;21.50;84.40
45323;DHT22;31382;50.200;8.674;2022-08-23T22:04:20;21.50;84.50
45323;DHT22;31382;50.200;8.674;2022-08-23T22:09:22;21.40;84.70
45323;DHT22;31382;50.200;8.674;2022-08-23T22:14:32;21.50;85.00
45323;DHT22;31382;50.200;8.674;2022-08-23T22:19:33;21.50;84.70
45323;DHT22;31382;50.200;8.674;2022-08-23T22:24:35;21.60;84.80
45323;DHT22;31382;50.200;8.674;2022-08-23T22:29:38;21.60;84.90
45323;DHT22;31382;50.200;8.674;2022-08-23T22:34:41;21.60;85.10
45323;DHT22;31382;50.200;8.674;2022-08-23T22:39:43;21.60;85.50
45323;DHT22;31382;50.200;8.674;2022-08-23T22:44:46;21.50;85.80
45323;DHT22;31382;50.200;8.674;2022-08-23T22:49:48;21.50;86.30
45323;DHT22;31382;50.200;8.674;2022-08-23T22:54:49;21.50;87.20
45323;DHT22;31382;50.200;8.674;2022-08-23T22:59:51;21.40;87.20
45323;DHT22;31382;50.200;8.674;2022-08-23T23:04:55;21.30;87.30
45323;DHT22;31382;50.200;8.674;2022-08-23T23:09:57;21.30;87.60
45323;DHT22;31382;50.200;8.674;2022-08-23T23:14:59;21.20;88.00
45323;DHT22;31382;50.200;8.674;2022-08-23T23:20:01;21.20;88.20
45323;DHT22;31382;50.200;8.674;2022-08-23T23:25:22;21.10;89.50
45323;DHT22;31382;50.200;8.674;2022-08-23T23:30:24;21.10;88.60
45323;DHT22;31382;50.200;8.674;2022-08-23T23:35:26;21.00;89.30
45323;DHT22;31382;50.200;8.674;2022-08-23T23:40:28;21.00;89.70
45323;DHT22;31382;50.200;8.674;2022-08-23T23:45:30;21.00;90.00
45323;DHT22;31382;50.200;8.674;2022-08-23T23:50:32;20.90;90.10
45323;DHT22;31382;50.200;8.674;2022-08-23T23:55:34;20.80;90.10
